Weather at Wormid Airport

Public forecast

Using degrees Fahrenheit for public forecast. Weather courtesy of forecast.io.

Closest aviation weather report (METAR) to Wormid Airport

Closest report is Laurence G Hanscom Field, 14.0 nm (25.9 km) NE. Retrieved 2020/09/18 11:51 UTC (1 hour ago):

KBED 181151Z 03009KT 10SM SCT020 OVC055 14/09 A3000 RMK AO2 SLP172 T01440094 10156 20144 51013

Closest aviation forecast (TAF) to Wormid Airport

Closest forecast is Laurence G Hanscom Field, 14.0 nm (25.9 km) NE. Retrieved 2020/09/18 12:28 UTC (26 minutes ago):

TAF KBED 181126Z 1812/1912 02009KT P6SM SCT025 BKN050 FM181400 02011G21KT P6SM BKN025 FM181800 01011G22KT P6SM BKN035 FM182100 02010G19KT P6SM FEW080 FM190000 36008KT P6SM FEW250